createdAt,value
2018-03-29T00:00:38.243Z,10.4
2018-03-29T00:01:39.883Z,10.2
2018-03-29T00:02:41.530Z,11.1
2018-03-29T00:03:43.172Z,9.1
2018-03-29T00:04:44.830Z,9.3
2018-03-29T00:05:46.479Z,10.0
2018-03-29T00:06:48.118Z,9.5
2018-03-29T00:07:49.783Z,9.3
2018-03-29T00:08:51.432Z,8.2
2018-03-29T00:09:53.095Z,9.0
2018-03-29T00:10:54.746Z,8.9
2018-03-29T00:11:56.396Z,9.0
2018-03-29T00:12:58.036Z,8.2
2018-03-29T00:13:59.685Z,8.7
2018-03-29T00:15:01.336Z,9.3
2018-03-29T00:16:02.984Z,8.4
2018-03-29T00:17:04.624Z,9.3
2018-03-29T00:18:06.301Z,8.6
2018-03-29T00:19:07.967Z,8.7
2018-03-29T00:20:09.615Z,8.6
2018-03-29T00:21:12.026Z,9.3
2018-03-29T00:22:13.688Z,8.6
2018-03-29T00:23:15.339Z,8.4
2018-03-29T00:24:16.998Z,10.2
2018-03-29T00:25:18.694Z,9.0
2018-03-29T00:26:20.300Z,9.5
2018-03-29T00:27:21.946Z,8.7
2018-03-29T00:28:23.598Z,8.4
2018-03-29T00:29:25.240Z,9.0
2018-03-29T00:30:26.900Z,8.7
2018-03-29T00:31:28.542Z,8.1
2018-03-29T00:32:30.190Z,8.2
2018-03-29T00:33:31.866Z,7.4
2018-03-29T00:34:33.514Z,8.3
2018-03-29T00:35:36.032Z,7.1
2018-03-29T00:36:37.684Z,7.9
2018-03-29T00:37:39.336Z,7.7
2018-03-29T00:38:40.985Z,7.9
2018-03-29T00:39:42.628Z,7.4
2018-03-29T00:40:44.270Z,6.6
2018-03-29T00:41:45.917Z,7.0
2018-03-29T00:42:47.566Z,7.4
2018-03-29T00:43:49.214Z,7.3
2018-03-29T00:44:50.856Z,7.3
2018-03-29T00:45:52.503Z,7.3
2018-03-29T00:46:54.159Z,7.6
2018-03-29T00:47:55.802Z,7.0
2018-03-29T00:48:57.453Z,7.4
2018-03-29T00:49:59.095Z,9.0
2018-03-29T00:51:00.751Z,8.2
2018-03-29T00:52:02.401Z,9.6
2018-03-29T00:53:04.063Z,9.7
2018-03-29T00:54:05.695Z,10.1
2018-03-29T00:55:07.350Z,10.1
2018-03-29T00:56:08.996Z,10.4
2018-03-29T00:57:10.642Z,9.9
2018-03-29T00:58:12.305Z,10.6
2018-03-29T00:59:13.947Z,11.2
2018-03-29T01:00:15.590Z,10.7
2018-03-29T01:01:17.250Z,9.7
2018-03-29T01:02:18.883Z,9.6
2018-03-29T01:03:20.526Z,10.3
2018-03-29T01:04:22.174Z,11.4
2018-03-29T01:05:23.839Z,10.3
2018-03-29T01:06:25.488Z,11.3
2018-03-29T01:07:27.138Z,9.4
2018-03-29T01:08:28.783Z,10.5
2018-03-29T01:09:30.433Z,11.1
2018-03-29T01:10:32.083Z,10.6
2018-03-29T01:11:33.745Z,10.7
2018-03-29T01:12:35.389Z,11.5
2018-03-29T01:13:37.039Z,10.9
2018-03-29T01:14:38.689Z,10.4
2018-03-29T01:15:40.352Z,11.1
2018-03-29T01:16:41.987Z,12.0
2018-03-29T01:17:43.640Z,10.9
2018-03-29T01:18:45.311Z,10.6
2018-03-29T01:19:46.960Z,12.1
2018-03-29T01:20:48.588Z,10.7
2018-03-29T01:21:50.242Z,11.4
2018-03-29T01:22:51.886Z,10.7
2018-03-29T01:23:53.535Z,10.4
2018-03-29T01:24:55.180Z,10.5
2018-03-29T01:25:56.828Z,10.1
2018-03-29T01:26:58.491Z,10.4
2018-03-29T01:28:00.138Z,10.9
2018-03-29T01:29:01.797Z,11.0
2018-03-29T01:30:03.440Z,10.6
2018-03-29T01:31:05.095Z,10.6
2018-03-29T01:32:06.761Z,9.6
2018-03-29T01:33:08.410Z,9.2
2018-03-29T01:34:10.061Z,9.7
2018-03-29T01:35:11.703Z,10.4
2018-03-29T01:36:13.354Z,10.7
2018-03-29T01:37:15.011Z,10.6
2018-03-29T01:38:16.646Z,9.3
2018-03-29T01:39:18.291Z,10.6
2018-03-29T01:40:19.940Z,10.8
2018-03-29T01:41:21.590Z,11.3
2018-03-29T01:42:23.274Z,10.3
2018-03-29T01:43:24.914Z,10.6
2018-03-29T01:44:26.572Z,11.4
2018-03-29T01:45:28.222Z,11.3
2018-03-29T01:46:29.868Z,11.0
2018-03-29T01:47:31.509Z,11.0
2018-03-29T01:48:33.160Z,11.5
2018-03-29T01:49:34.804Z,12.5
2018-03-29T01:50:36.457Z,12.3
2018-03-29T01:51:38.108Z,11.0
2018-03-29T01:52:39.760Z,11.8
2018-03-29T01:53:41.403Z,11.5
2018-03-29T01:54:43.052Z,10.3
2018-03-29T01:55:44.703Z,10.7
2018-03-29T02:02:14.343Z,7.8
2018-03-29T02:03:15.990Z,9.3
2018-03-29T02:05:07.795Z,10.0
2018-03-29T02:06:09.434Z,9.3
2018-03-29T02:08:01.287Z,9.2
2018-03-29T02:09:02.916Z,9.0
2018-03-29T02:10:04.578Z,8.4
2018-03-29T02:11:06.217Z,8.9
2018-03-29T02:12:07.864Z,8.8
2018-03-29T02:13:09.520Z,9.6
2018-03-29T02:14:11.171Z,9.1
2018-03-29T02:15:12.815Z,8.8
2018-03-29T02:16:14.464Z,8.2
2018-03-29T02:17:16.113Z,9.1
2018-03-29T02:18:17.759Z,9.1
2018-03-29T02:19:19.402Z,9.5
2018-03-29T02:20:21.051Z,9.0
2018-03-29T02:21:22.850Z,9.4
2018-03-29T02:22:24.496Z,9.8
2018-03-29T02:23:26.136Z,9.6
2018-03-29T02:24:27.805Z,9.2
2018-03-29T02:25:29.438Z,9.4
2018-03-29T02:26:31.082Z,9.6
2018-03-29T02:27:32.733Z,9.4
2018-03-29T02:28:34.377Z,8.9
2018-03-29T02:29:36.022Z,9.6
2018-03-29T02:30:37.663Z,9.6
2018-03-29T02:31:39.307Z,10.0
2018-03-29T02:32:40.956Z,10.1
2018-03-29T02:33:42.595Z,10.3
2018-03-29T02:34:44.242Z,9.8
2018-03-29T02:35:45.896Z,9.6
2018-03-29T02:36:47.539Z,10.3
2018-03-29T02:37:49.193Z,10.2
2018-03-29T02:38:50.832Z,10.8
2018-03-29T02:39:52.483Z,11.2
2018-03-29T02:40:54.113Z,11.4
2018-03-29T02:41:55.772Z,11.9
2018-03-29T02:42:57.418Z,10.1
2018-03-29T02:43:59.068Z,10.7
2018-03-29T02:45:00.717Z,10.2
2018-03-29T02:46:02.357Z,10.1
2018-03-29T02:47:04.007Z,10.2
2018-03-29T02:48:05.658Z,9.9
2018-03-29T02:49:07.302Z,10.5
2018-03-29T02:50:08.961Z,10.8
2018-03-29T02:51:10.604Z,10.3
2018-03-29T02:52:12.262Z,11.1
2018-03-29T02:53:13.894Z,11.0
2018-03-29T02:54:15.534Z,10.1
2018-03-29T02:55:17.185Z,10.9
2018-03-29T02:56:18.840Z,10.7
2018-03-29T02:57:20.487Z,10.9
2018-03-29T02:58:22.136Z,11.2
2018-03-29T02:59:23.795Z,11.7
2018-03-29T03:00:25.443Z,11.1
2018-03-29T03:01:27.051Z,10.5
2018-03-29T03:02:28.695Z,11.7
2018-03-29T03:03:30.348Z,10.7
2018-03-29T03:04:31.987Z,10.4
2018-03-29T03:05:33.644Z,11.1
2018-03-29T03:06:35.290Z,10.7
2018-03-29T03:07:36.936Z,11.8
2018-03-29T03:08:38.582Z,11.5
2018-03-29T03:09:40.228Z,11.3
2018-03-29T03:10:41.881Z,11.2
2018-03-29T03:11:43.524Z,11.4
2018-03-29T03:12:45.173Z,11.5
2018-03-29T03:13:46.822Z,12.4
2018-03-29T03:14:48.467Z,11.5
2018-03-29T03:15:50.115Z,12.5
2018-03-29T03:16:51.765Z,12.0
2018-03-29T03:17:53.482Z,12.1
2018-03-29T03:18:55.128Z,12.1
2018-03-29T03:19:56.781Z,12.2
2018-03-29T03:20:58.496Z,13.2
2018-03-29T03:22:00.140Z,12.7
2018-03-29T03:23:01.849Z,11.5
2018-03-29T03:24:03.445Z,12.9
2018-03-29T03:25:05.093Z,12.3
2018-03-29T03:26:06.748Z,13.6
2018-03-29T03:27:08.388Z,12.2
2018-03-29T03:28:10.034Z,12.1
2018-03-29T03:29:11.686Z,13.5
2018-03-29T03:30:13.327Z,12.3
2018-03-29T03:31:14.986Z,12.4
2018-03-29T03:32:16.640Z,12.4
2018-03-29T03:33:18.924Z,13.3
2018-03-29T03:34:20.560Z,13.9
2018-03-29T03:35:22.218Z,13.1
2018-03-29T03:36:23.868Z,13.6
2018-03-29T03:37:25.519Z,13.5
2018-03-29T03:38:27.262Z,14.6
2018-03-29T03:39:28.919Z,14.4
2018-03-29T03:40:30.578Z,13.0
2018-03-29T03:41:32.228Z,13.9
2018-03-29T03:42:33.880Z,13.5
2018-03-29T03:43:35.520Z,14.3
2018-03-29T03:44:37.178Z,14.4
2018-03-29T03:45:38.816Z,13.3
2018-03-29T03:46:40.514Z,14.9
2018-03-29T03:47:42.184Z,13.2
2018-03-29T03:48:43.822Z,12.4
2018-03-29T03:49:45.468Z,13.4
2018-03-29T03:50:47.104Z,12.9
2018-03-29T03:51:48.761Z,13.1
2018-03-29T03:52:50.408Z,13.5
2018-03-29T03:53:52.054Z,12.2
2018-03-29T03:54:53.697Z,12.9
2018-03-29T03:55:55.361Z,12.6
2018-03-29T03:56:56.997Z,12.2
2018-03-29T03:57:58.638Z,14.0
2018-03-29T03:59:00.283Z,13.3
2018-03-29T04:00:01.937Z,11.9
2018-03-29T04:01:03.587Z,13.0
2018-03-29T04:02:05.231Z,12.6
2018-03-29T04:03:06.945Z,13.0
2018-03-29T04:04:08.585Z,12.4
2018-03-29T04:05:10.232Z,13.7
2018-03-29T04:06:11.878Z,12.1
2018-03-29T04:07:13.533Z,12.4
2018-03-29T04:08:15.176Z,13.2
2018-03-29T04:09:16.826Z,13.4
2018-03-29T04:10:18.471Z,13.3
2018-03-29T04:11:20.125Z,13.8
2018-03-29T04:12:21.765Z,13.9
2018-03-29T04:13:23.587Z,13.4
2018-03-29T04:14:25.236Z,14.2
2018-03-29T04:15:26.883Z,14.1
2018-03-29T04:16:28.530Z,14.2
2018-03-29T04:17:30.176Z,13.7
2018-03-29T04:18:31.820Z,14.1
2018-03-29T04:19:33.526Z,13.7
2018-03-29T04:20:35.140Z,13.8
2018-03-29T04:21:36.785Z,14.1
2018-03-29T04:22:38.456Z,14.9
2018-03-29T04:23:40.102Z,14.3
2018-03-29T04:24:41.764Z,14.9
2018-03-29T04:25:43.407Z,13.7
2018-03-29T04:26:45.060Z,15.1
2018-03-29T04:27:46.708Z,14.0
2018-03-29T04:28:48.359Z,16.3
2018-03-29T04:29:50.009Z,15.5
2018-03-29T04:30:51.650Z,14.5
2018-03-29T04:31:53.296Z,15.5
2018-03-29T04:32:54.947Z,15.0
2018-03-29T04:33:56.601Z,15.4
2018-03-29T04:34:58.253Z,13.6
2018-03-29T04:35:59.912Z,15.1
2018-03-29T04:37:01.559Z,15.9
2018-03-29T04:38:03.202Z,15.8
2018-03-29T04:39:04.849Z,14.8
2018-03-29T04:40:06.502Z,15.0
2018-03-29T04:41:08.137Z,15.7
2018-03-29T04:42:09.774Z,15.0
2018-03-29T04:43:11.438Z,15.0
2018-03-29T04:44:13.075Z,13.7
2018-03-29T04:45:14.731Z,13.6
2018-03-29T04:46:16.381Z,12.3
2018-03-29T04:47:18.026Z,14.0
2018-03-29T04:48:19.675Z,14.3
2018-03-29T04:49:21.327Z,15.1
2018-03-29T04:50:22.981Z,16.0
2018-03-29T04:51:24.639Z,14.3
2018-03-29T04:52:26.349Z,14.4
2018-03-29T04:53:27.987Z,15.0
2018-03-29T04:54:29.638Z,14.3
2018-03-29T04:55:31.319Z,15.0
2018-03-29T04:56:32.951Z,16.1
2018-03-29T04:57:34.591Z,14.8
2018-03-29T04:58:36.245Z,15.0
2018-03-29T04:59:37.891Z,14.7
2018-03-29T05:00:39.540Z,14.4
2018-03-29T05:01:41.190Z,14.5
2018-03-29T05:02:42.840Z,14.7
2018-03-29T05:03:44.484Z,14.7
2018-03-29T05:04:46.138Z,14.4
2018-03-29T05:05:47.790Z,15.7
2018-03-29T05:06:49.439Z,16.5
2018-03-29T05:07:51.093Z,15.4
2018-03-29T05:08:52.742Z,16.3
2018-03-29T05:09:54.396Z,16.6
2018-03-29T05:10:56.041Z,16.4
2018-03-29T05:11:57.686Z,15.7
2018-03-29T05:12:59.327Z,16.3
2018-03-29T05:14:00.970Z,18.2
2018-03-29T05:15:02.633Z,17.2
2018-03-29T05:16:04.283Z,17.2
2018-03-29T05:17:05.932Z,16.1
2018-03-29T05:18:07.581Z,16.9
2018-03-29T05:19:09.236Z,16.9
2018-03-29T05:20:10.889Z,17.6
2018-03-29T05:21:12.553Z,17.7
2018-03-29T05:22:14.819Z,18.4
2018-03-29T05:23:16.476Z,18.4
2018-03-29T05:24:18.122Z,17.9
2018-03-29T05:25:19.780Z,18.0
2018-03-29T05:26:21.432Z,18.0
2018-03-29T05:27:23.089Z,19.2
2018-03-29T05:28:24.736Z,17.8
2018-03-29T05:29:26.392Z,19.5
2018-03-29T05:30:28.042Z,19.9
2018-03-29T05:31:29.806Z,18.5
2018-03-29T05:32:31.453Z,18.8
2018-03-29T05:33:33.106Z,19.6
2018-03-29T05:34:34.760Z,19.2
2018-03-29T05:35:36.401Z,18.6
2018-03-29T05:36:38.060Z,18.6
2018-03-29T05:37:39.705Z,18.6
2018-03-29T05:38:41.359Z,20.3
2018-03-29T05:39:43.018Z,19.9
2018-03-29T05:40:44.678Z,19.1
2018-03-29T05:41:46.326Z,19.8
2018-03-29T05:42:47.980Z,20.3
2018-03-29T05:43:49.630Z,20.2
2018-03-29T05:44:51.292Z,19.4
2018-03-29T05:45:53.024Z,19.5
2018-03-29T05:46:54.688Z,19.2
2018-03-29T05:47:56.330Z,21.1
2018-03-29T05:48:57.981Z,19.1
2018-03-29T05:49:59.637Z,19.5
2018-03-29T05:51:01.282Z,19.2
2018-03-29T05:52:02.938Z,19.7
2018-03-29T05:53:04.596Z,19.7
2018-03-29T05:54:06.243Z,18.8
2018-03-29T05:55:07.904Z,19.2
2018-03-29T06:01:40.555Z,13.2
2018-03-29T06:02:42.204Z,14.7
2018-03-29T06:03:43.858Z,18.2
2018-03-29T06:04:45.516Z,17.9
2018-03-29T06:05:47.169Z,18.4
2018-03-29T06:06:48.813Z,18.1
2018-03-29T06:07:50.566Z,19.1
2018-03-29T06:08:52.221Z,19.3
2018-03-29T06:09:53.863Z,18.5
2018-03-29T06:10:55.519Z,18.1
2018-03-29T06:11:57.176Z,18.6
2018-03-29T06:12:58.828Z,19.8
2018-03-29T06:14:00.478Z,19.3
2018-03-29T06:15:02.142Z,18.6
2018-03-29T06:16:03.837Z,18.7
2018-03-29T06:17:05.446Z,18.2
2018-03-29T06:18:07.156Z,18.9
2018-03-29T06:19:08.811Z,17.5
2018-03-29T06:20:10.504Z,19.0
2018-03-29T06:21:12.162Z,18.5
2018-03-29T06:22:13.813Z,18.1
2018-03-29T06:23:15.548Z,18.7
2018-03-29T06:24:17.130Z,17.9
2018-03-29T06:25:18.790Z,19.7
2018-03-29T06:26:20.445Z,18.6
2018-03-29T06:27:22.104Z,18.4
2018-03-29T06:28:23.761Z,17.8
2018-03-29T06:29:25.469Z,18.9
2018-03-29T06:30:27.125Z,18.0
2018-03-29T06:31:28.779Z,18.6
2018-03-29T06:32:30.472Z,19.8
2018-03-29T06:33:32.144Z,18.6
2018-03-29T06:34:33.808Z,20.1
2018-03-29T06:35:35.465Z,19.6
2018-03-29T06:36:37.118Z,20.0
2018-03-29T06:37:38.773Z,20.0
2018-03-29T06:38:40.433Z,18.9
2018-03-29T06:39:42.077Z,19.8
2018-03-29T06:40:43.738Z,20.2
2018-03-29T06:41:45.389Z,20.1
2018-03-29T06:42:47.043Z,20.4
2018-03-29T06:43:48.702Z,19.3
2018-03-29T06:44:51.315Z,19.1
2018-03-29T06:45:52.963Z,20.1
2018-03-29T06:46:54.630Z,20.4
2018-03-29T06:47:56.277Z,21.0
2018-03-29T06:48:57.932Z,21.9
2018-03-29T06:49:59.582Z,21.8
2018-03-29T06:51:01.242Z,21.8
2018-03-29T06:52:02.913Z,22.3
2018-03-29T06:53:04.566Z,22.4
2018-03-29T06:54:06.228Z,23.3
2018-03-29T06:55:07.874Z,21.9
2018-03-29T06:56:09.532Z,22.4
2018-03-29T06:57:11.194Z,21.5
2018-03-29T06:58:12.854Z,22.2
2018-03-29T06:59:14.497Z,22.1
2018-03-29T07:00:16.154Z,22.1
2018-03-29T07:01:17.815Z,23.3
2018-03-29T07:02:19.465Z,21.7
2018-03-29T07:03:21.124Z,21.1
2018-03-29T07:04:22.778Z,21.5
2018-03-29T07:05:24.445Z,22.9
2018-03-29T07:06:26.131Z,22.1
2018-03-29T07:07:27.791Z,21.7
2018-03-29T07:08:29.434Z,21.9
2018-03-29T07:09:31.084Z,22.4
2018-03-29T07:10:32.737Z,22.6
2018-03-29T07:11:34.401Z,22.1
2018-03-29T07:12:36.069Z,22.9
2018-03-29T07:13:37.720Z,22.7
2018-03-29T07:14:39.385Z,22.6
2018-03-29T07:15:41.038Z,23.1
2018-03-29T07:16:42.698Z,22.2
2018-03-29T07:17:44.354Z,23.0
2018-03-29T07:18:46.016Z,23.3
2018-03-29T07:19:47.716Z,22.4
2018-03-29T07:20:49.369Z,23.7
2018-03-29T07:21:51.041Z,22.3
2018-03-29T07:22:52.690Z,21.6
2018-03-29T07:23:54.342Z,23.1
2018-03-29T07:24:56.010Z,23.3
2018-03-29T07:25:57.662Z,23.2
2018-03-29T07:27:00.171Z,23.2
2018-03-29T07:28:01.834Z,23.4
2018-03-29T07:29:03.494Z,23.0
2018-03-29T07:30:05.167Z,22.3
2018-03-29T07:31:06.817Z,24.1
2018-03-29T07:32:08.480Z,24.5
2018-03-29T07:33:10.159Z,22.3
2018-03-29T07:34:11.812Z,24.3
2018-03-29T07:35:13.474Z,21.6
2018-03-29T07:36:15.129Z,20.8
2018-03-29T07:37:16.780Z,22.3
2018-03-29T07:38:18.439Z,21.9
2018-03-29T07:39:20.091Z,24.5
2018-03-29T07:40:21.744Z,24.7
2018-03-29T07:41:23.404Z,21.5
2018-03-29T07:42:25.061Z,22.4
2018-03-29T07:43:26.719Z,22.3
2018-03-29T07:44:28.375Z,21.5
2018-03-29T07:45:30.028Z,23.8
2018-03-29T07:46:31.723Z,22.7
2018-03-29T07:47:33.392Z,19.5
2018-03-29T07:48:35.039Z,22.8
2018-03-29T07:49:36.696Z,22.2
2018-03-29T07:50:38.375Z,21.4
2018-03-29T07:51:40.038Z,21.0
2018-03-29T07:52:41.711Z,20.7
2018-03-29T07:53:43.415Z,20.3
2018-03-29T07:54:45.037Z,20.3
2018-03-29T07:55:46.695Z,19.3
2018-03-29T07:56:48.372Z,20.6
2018-03-29T07:57:50.024Z,19.7
2018-03-29T07:58:51.680Z,20.4
2018-03-29T07:59:53.333Z,20.7
2018-03-29T08:00:54.994Z,19.8
2018-03-29T08:01:56.657Z,21.5
2018-03-29T08:02:58.361Z,20.4
2018-03-29T08:04:00.026Z,20.9
2018-03-29T08:05:01.681Z,18.4
2018-03-29T08:06:03.353Z,21.0
2018-03-29T08:07:05.006Z,20.2
2018-03-29T08:08:06.659Z,19.8
2018-03-29T08:09:08.320Z,19.4
2018-03-29T08:10:09.986Z,19.3
2018-03-29T08:11:11.637Z,20.2
2018-03-29T08:12:13.305Z,19.5
2018-03-29T08:13:15.007Z,19.5
2018-03-29T08:14:16.667Z,20.8
2018-03-29T08:15:18.318Z,21.8
2018-03-29T08:16:20.288Z,19.4
2018-03-29T08:17:21.937Z,19.6
2018-03-29T08:18:23.595Z,18.8
2018-03-29T08:19:25.264Z,20.1
2018-03-29T08:20:26.919Z,19.0
2018-03-29T08:21:28.563Z,19.5
2018-03-29T08:22:30.255Z,17.4
2018-03-29T08:23:31.909Z,19.4
2018-03-29T08:24:33.585Z,18.8
2018-03-29T08:25:39.999Z,19.0
2018-03-29T08:26:41.653Z,17.9
2018-03-29T08:27:43.309Z,19.1
2018-03-29T08:28:44.962Z,19.0
2018-03-29T08:29:48.448Z,18.5
2018-03-29T08:30:50.110Z,19.3
2018-03-29T08:31:51.761Z,18.1
2018-03-29T08:32:53.439Z,18.6
2018-03-29T08:33:55.093Z,17.8
2018-03-29T08:34:56.745Z,21.0
2018-03-29T08:35:58.402Z,19.4
2018-03-29T08:37:00.070Z,18.9
2018-03-29T08:38:01.718Z,21.5
2018-03-29T08:39:03.378Z,22.1
2018-03-29T08:40:05.032Z,19.5
2018-03-29T08:41:06.693Z,20.1
2018-03-29T08:42:08.345Z,20.1
2018-03-29T08:43:10.000Z,20.6
2018-03-29T08:44:11.660Z,20.0
2018-03-29T08:45:13.392Z,19.5
2018-03-29T08:46:15.054Z,21.6
2018-03-29T08:47:16.730Z,22.5
2018-03-29T08:48:18.378Z,22.2
2018-03-29T08:49:20.028Z,23.0
2018-03-29T08:50:21.697Z,22.8
2018-03-29T08:51:23.347Z,21.5
2018-03-29T08:52:25.007Z,21.1
2018-03-29T08:53:26.662Z,21.5
2018-03-29T08:54:28.373Z,20.1
2018-03-29T08:55:30.020Z,20.7
2018-03-29T08:56:31.677Z,20.7
2018-03-29T08:57:33.343Z,21.1
2018-03-29T08:58:34.996Z,20.9
2018-03-29T08:59:36.659Z,22.4
2018-03-29T09:00:38.353Z,21.1
2018-03-29T09:01:40.015Z,22.1
2018-03-29T09:02:41.868Z,22.8
2018-03-29T09:03:43.531Z,19.7
2018-03-29T09:04:45.169Z,20.2
2018-03-29T09:05:46.858Z,21.3
2018-03-29T09:06:48.572Z,20.8
2018-03-29T09:07:50.230Z,21.9
2018-03-29T09:08:51.913Z,22.4
2018-03-29T09:09:53.568Z,21.4
2018-03-29T09:10:55.229Z,20.0
2018-03-29T09:11:56.882Z,20.5
2018-03-29T09:12:58.687Z,21.2
2018-03-29T09:14:00.348Z,21.3
2018-03-29T09:15:02.005Z,21.0
2018-03-29T09:16:03.671Z,19.8
2018-03-29T09:17:05.332Z,20.4
2018-03-29T09:18:07.010Z,20.2
2018-03-29T09:19:08.653Z,21.5
2018-03-29T09:20:10.319Z,21.8
2018-03-29T09:21:11.970Z,22.2
2018-03-29T09:22:13.636Z,21.6
2018-03-29T09:23:15.309Z,20.1
2018-03-29T09:24:16.966Z,21.6
2018-03-29T09:25:18.627Z,21.2
2018-03-29T09:26:20.284Z,21.0
2018-03-29T09:27:21.949Z,20.2
2018-03-29T09:28:23.731Z,20.9
2018-03-29T09:29:25.389Z,20.3
2018-03-29T09:30:27.052Z,21.4
2018-03-29T09:31:28.717Z,20.0
2018-03-29T09:32:30.379Z,19.0
2018-03-29T09:33:32.055Z,19.2
2018-03-29T09:34:33.715Z,19.5
2018-03-29T09:35:35.369Z,21.0
2018-03-29T09:36:37.032Z,20.1
2018-03-29T09:37:38.686Z,20.7
2018-03-29T09:38:40.396Z,18.5
2018-03-29T09:39:42.050Z,17.9
2018-03-29T09:40:43.716Z,17.0
2018-03-29T09:41:45.375Z,19.4
2018-03-29T09:42:47.045Z,18.6
2018-03-29T09:43:48.718Z,19.0
2018-03-29T09:44:50.363Z,16.9
2018-03-29T09:45:52.023Z,17.3
2018-03-29T09:46:53.681Z,17.2
2018-03-29T09:47:55.346Z,16.2
2018-03-29T09:48:57.017Z,16.8
2018-03-29T09:49:58.742Z,17.6
2018-03-29T09:51:00.396Z,16.8
2018-03-29T09:52:02.073Z,16.2
2018-03-29T09:53:03.726Z,16.1
2018-03-29T09:54:05.391Z,15.8
2018-03-29T09:55:07.046Z,15.9
2018-03-29T10:01:18.659Z,13.6
2018-03-29T10:02:20.316Z,14.0
2018-03-29T10:04:12.199Z,16.1
2018-03-29T10:05:13.850Z,15.7
2018-03-29T10:06:15.513Z,16.5
2018-03-29T10:07:17.174Z,17.0
2018-03-29T10:08:18.829Z,16.6
2018-03-29T10:09:20.497Z,15.4
2018-03-29T10:10:22.198Z,16.0
2018-03-29T10:11:23.841Z,16.8
2018-03-29T10:12:25.511Z,16.3
2018-03-29T10:13:27.160Z,16.5
2018-03-29T10:14:28.844Z,17.5
2018-03-29T10:15:30.502Z,17.5
2018-03-29T10:16:32.160Z,17.6
2018-03-29T10:17:34.214Z,17.7
2018-03-29T10:18:35.906Z,16.9
2018-03-29T10:19:37.560Z,16.2
2018-03-29T10:20:39.226Z,16.4
2018-03-29T10:21:40.890Z,17.1
2018-03-29T10:22:42.536Z,17.8
2018-03-29T10:23:44.188Z,17.4
2018-03-29T10:24:45.908Z,17.6
2018-03-29T10:25:47.569Z,16.4
2018-03-29T10:26:49.219Z,16.6
2018-03-29T10:27:50.873Z,17.3
2018-03-29T10:28:52.677Z,17.6
2018-03-29T10:29:54.338Z,17.4
2018-03-29T10:30:56.015Z,19.3
2018-03-29T10:31:57.683Z,18.5
2018-03-29T10:32:59.348Z,19.2
2018-03-29T10:34:01.019Z,18.5
2018-03-29T10:35:02.679Z,19.6
2018-03-29T10:36:04.332Z,17.9
2018-03-29T10:37:05.986Z,18.3
2018-03-29T10:38:07.637Z,18.0
2018-03-29T10:39:09.310Z,19.3
2018-03-29T10:40:10.967Z,16.8
2018-03-29T10:41:12.637Z,17.6
2018-03-29T10:42:14.288Z,16.5
2018-03-29T10:43:15.947Z,19.1
2018-03-29T10:44:17.607Z,17.2
2018-03-29T10:45:19.273Z,17.6
2018-03-29T10:46:20.930Z,17.2
2018-03-29T10:47:22.588Z,16.4
2018-03-29T10:48:24.258Z,17.4
2018-03-29T10:49:25.937Z,17.0
2018-03-29T10:50:27.594Z,18.0
2018-03-29T10:51:29.264Z,17.3
2018-03-29T10:52:30.936Z,16.9
2018-03-29T10:53:32.591Z,16.2
2018-03-29T10:54:34.271Z,15.8
2018-03-29T10:55:35.946Z,15.2
2018-03-29T10:56:37.610Z,17.7
2018-03-29T10:57:39.263Z,16.8
2018-03-29T10:58:40.929Z,15.7
2018-03-29T10:59:42.586Z,14.7
2018-03-29T11:00:44.258Z,14.7
2018-03-29T11:01:48.422Z,14.9
2018-03-29T11:02:54.003Z,15.6
2018-03-29T11:03:55.509Z,15.8
2018-03-29T11:04:57.167Z,15.4
2018-03-29T11:05:58.824Z,16.2
2018-03-29T11:07:00.486Z,15.6
2018-03-29T11:08:02.142Z,16.6
2018-03-29T11:09:03.931Z,15.6
2018-03-29T11:10:05.602Z,16.0
2018-03-29T11:11:07.284Z,15.6
2018-03-29T11:12:08.951Z,16.4
2018-03-29T11:13:10.611Z,15.5
2018-03-29T11:14:12.271Z,15.9
2018-03-29T11:15:13.937Z,16.6
2018-03-29T11:16:15.589Z,15.3
2018-03-29T11:17:20.332Z,15.9
2018-03-29T11:18:21.768Z,17.6
2018-03-29T11:19:23.424Z,16.8
2018-03-29T11:20:25.086Z,19.5
2018-03-29T11:21:26.744Z,16.5
2018-03-29T11:22:28.419Z,16.8
2018-03-29T11:23:30.089Z,19.5
2018-03-29T11:24:31.800Z,18.0
2018-03-29T11:25:33.467Z,18.5
2018-03-29T11:26:35.133Z,17.1
2018-03-29T11:27:36.793Z,12.8
2018-03-29T11:28:38.454Z,14.2
2018-03-29T11:29:40.186Z,13.8
2018-03-29T11:30:41.855Z,14.6
2018-03-29T11:31:43.504Z,13.1
2018-03-29T11:32:45.172Z,13.9
2018-03-29T11:33:46.840Z,17.6
2018-03-29T11:34:48.503Z,18.6
2018-03-29T11:35:50.171Z,17.3
2018-03-29T11:36:51.831Z,16.5
2018-03-29T11:37:53.489Z,21.5
2018-03-29T11:38:55.174Z,14.5
2018-03-29T11:39:56.833Z,17.8
2018-03-29T11:40:58.498Z,14.1
2018-03-29T11:42:00.181Z,15.1
2018-03-29T11:43:01.835Z,18.0
2018-03-29T11:44:03.504Z,16.9
2018-03-29T11:45:05.167Z,16.5
2018-03-29T11:46:06.842Z,15.1
2018-03-29T11:47:08.502Z,17.3
2018-03-29T11:48:10.412Z,19.3
2018-03-29T11:49:12.075Z,15.2
2018-03-29T11:50:13.737Z,14.9
2018-03-29T11:51:15.443Z,15.0
2018-03-29T11:52:17.103Z,15.4
2018-03-29T11:53:18.785Z,15.7
2018-03-29T11:54:20.459Z,15.8
2018-03-29T11:55:22.130Z,14.7
2018-03-29T11:56:23.804Z,14.1
2018-03-29T11:57:25.469Z,13.7
2018-03-29T11:58:27.121Z,13.6
2018-03-29T11:59:28.794Z,12.6
2018-03-29T12:00:30.458Z,13.4
2018-03-29T12:01:32.116Z,11.6
2018-03-29T12:02:33.795Z,10.8
2018-03-29T12:03:35.464Z,10.5
2018-03-29T12:04:37.116Z,10.3
2018-03-29T12:05:38.815Z,9.7
2018-03-29T12:06:40.474Z,8.8
2018-03-29T12:07:43.571Z,9.1
2018-03-29T12:08:46.664Z,9.6
2018-03-29T12:09:48.287Z,10.8
2018-03-29T12:10:49.966Z,9.7
2018-03-29T12:11:51.659Z,10.4
2018-03-29T12:12:53.342Z,10.0
2018-03-29T12:13:55.017Z,9.5
2018-03-29T12:14:56.691Z,10.0
2018-03-29T12:15:58.363Z,11.1
2018-03-29T12:17:00.039Z,10.7
2018-03-29T12:18:02.040Z,9.9
2018-03-29T12:19:03.830Z,9.3
2018-03-29T12:20:05.662Z,8.9
2018-03-29T12:21:07.337Z,9.5
2018-03-29T12:22:09.054Z,10.2
2018-03-29T12:23:10.731Z,11.0
2018-03-29T12:24:12.407Z,9.1
2018-03-29T12:25:14.068Z,9.8
2018-03-29T12:26:15.748Z,9.7
2018-03-29T12:27:17.424Z,11.0
2018-03-29T12:28:19.093Z,9.9
2018-03-29T12:29:20.764Z,10.0
2018-03-29T12:30:22.447Z,9.2
2018-03-29T12:31:24.104Z,9.0
2018-03-29T12:32:25.777Z,9.4
2018-03-29T12:33:27.437Z,9.0
2018-03-29T12:34:29.104Z,9.0
2018-03-29T12:35:30.802Z,9.5
2018-03-29T12:36:32.537Z,8.6
2018-03-29T12:37:34.390Z,8.0
2018-03-29T12:38:36.156Z,6.7
2018-03-29T12:39:37.877Z,5.0
2018-03-29T12:40:39.739Z,4.9
2018-03-29T12:41:41.557Z,5.3
2018-03-29T12:42:43.213Z,5.5
2018-03-29T12:43:44.895Z,5.2
2018-03-29T12:44:47.020Z,5.5
2018-03-29T12:45:48.760Z,4.2
2018-03-29T12:46:50.531Z,5.0
2018-03-29T12:47:52.229Z,4.4
2018-03-29T12:48:53.924Z,4.2
2018-03-29T12:49:55.581Z,4.3
2018-03-29T12:50:57.300Z,4.9
2018-03-29T12:51:58.971Z,4.4
2018-03-29T12:53:00.662Z,3.7
2018-03-29T12:54:02.317Z,4.4
2018-03-29T12:55:04.038Z,4.2
2018-03-29T12:56:05.776Z,6.1
2018-03-29T12:57:07.468Z,6.3
2018-03-29T12:58:09.167Z,4.4
2018-03-29T12:59:10.859Z,4.9
2018-03-29T13:00:12.717Z,4.0
2018-03-29T13:01:14.339Z,3.8
2018-03-29T13:02:16.009Z,3.2
2018-03-29T13:03:17.670Z,3.5
2018-03-29T13:04:19.388Z,4.0
2018-03-29T13:05:21.055Z,4.1
2018-03-29T13:06:22.772Z,3.5
2018-03-29T13:07:24.553Z,4.1
2018-03-29T13:08:26.249Z,4.5
2018-03-29T13:09:27.950Z,4.3
2018-03-29T13:10:29.673Z,3.5
2018-03-29T13:11:31.532Z,3.3
2018-03-29T13:12:33.339Z,3.7
2018-03-29T13:13:35.014Z,3.6
2018-03-29T13:14:36.707Z,3.5
2018-03-29T13:15:38.357Z,3.3
2018-03-29T13:16:40.272Z,3.3
2018-03-29T13:17:41.950Z,3.3
2018-03-29T13:18:43.619Z,3.6
2018-03-29T13:19:45.412Z,4.1
2018-03-29T13:20:47.086Z,4.0
2018-03-29T13:21:48.760Z,4.7
2018-03-29T13:22:50.421Z,4.8
2018-03-29T13:23:52.163Z,4.4
2018-03-29T13:24:53.902Z,4.6
2018-03-29T13:25:55.566Z,4.5
2018-03-29T13:26:57.219Z,4.9
2018-03-29T13:27:58.889Z,4.9
2018-03-29T13:29:00.553Z,4.2
2018-03-29T13:30:02.233Z,3.9
2018-03-29T13:31:03.891Z,4.7
2018-03-29T13:32:05.569Z,4.2
2018-03-29T13:33:07.229Z,5.0
2018-03-29T13:34:08.894Z,5.0
2018-03-29T13:35:10.569Z,4.7
2018-03-29T13:36:12.224Z,5.1
2018-03-29T13:37:13.933Z,4.7
2018-03-29T13:38:15.586Z,5.3
2018-03-29T13:39:17.242Z,4.3
2018-03-29T13:40:18.962Z,4.2
2018-03-29T13:41:20.654Z,3.2
2018-03-29T13:42:22.341Z,2.9
2018-03-29T13:43:24.030Z,3.5
2018-03-29T13:44:25.666Z,3.8
2018-03-29T13:45:27.325Z,3.5
2018-03-29T13:46:28.983Z,4.2
2018-03-29T13:47:30.643Z,4.0
2018-03-29T13:48:32.380Z,3.9
2018-03-29T13:49:34.047Z,3.9
2018-03-29T13:50:35.721Z,4.6
2018-03-29T13:51:37.373Z,4.7
2018-03-29T13:52:39.094Z,4.0
2018-03-29T13:53:40.754Z,3.8
2018-03-29T13:54:42.418Z,3.7
2018-03-29T13:55:44.077Z,3.5
2018-03-29T14:02:08.663Z,4.3
2018-03-29T14:03:10.306Z,5.4
2018-03-29T14:04:11.968Z,7.8
2018-03-29T14:05:13.645Z,7.1
2018-03-29T14:06:15.303Z,7.4
2018-03-29T14:07:16.969Z,4.6
2018-03-29T14:08:19.323Z,6.0
2018-03-29T14:09:21.018Z,4.8
2018-03-29T14:10:22.963Z,4.9
2018-03-29T14:11:24.617Z,4.0